createdAt,value
2023-04-23T00:00:49.523Z,7.90
2023-04-23T00:03:19.736Z,8.20
2023-04-23T00:05:51.136Z,8.20
2023-04-23T00:08:19.903Z,8.40
2023-04-23T00:10:47.964Z,8.40
2023-04-23T00:13:15.930Z,8.20
2023-04-23T00:15:43.918Z,8.10
2023-04-23T00:18:11.505Z,8.10
2023-04-23T00:20:39.198Z,8.20
2023-04-23T00:23:06.708Z,8.40
2023-04-23T00:25:34.322Z,8.40
2023-04-23T00:28:01.833Z,8.30
2023-04-23T00:30:29.370Z,8.20
2023-04-23T00:32:57.143Z,8.10
2023-04-23T00:35:24.700Z,8.10
2023-04-23T00:37:52.240Z,8.00
2023-04-23T00:40:20.956Z,7.90
2023-04-23T00:42:49.428Z,7.90
2023-04-23T00:45:17.070Z,8.00
2023-04-23T00:47:45.285Z,7.90
2023-04-23T00:50:13.452Z,7.90
2023-04-23T00:52:41.260Z,7.80
2023-04-23T00:55:09.380Z,7.70
2023-04-23T00:57:39.360Z,7.60
2023-04-23T01:00:08.203Z,7.50
2023-04-23T01:02:37.525Z,7.50
2023-04-23T01:05:07.993Z,7.50
2023-04-23T01:07:36.414Z,7.40
2023-04-23T01:10:08.145Z,7.40
2023-04-23T01:12:35.718Z,7.30
2023-04-23T01:15:04.755Z,7.30
2023-04-23T01:17:32.487Z,7.20
2023-04-23T01:20:00.003Z,7.20
2023-04-23T01:22:27.924Z,7.20
2023-04-23T01:24:55.991Z,7.10
2023-04-23T01:27:25.160Z,7.10
2023-04-23T01:29:53.288Z,7.10
2023-04-23T01:32:21.619Z,7.00
2023-04-23T01:34:50.409Z,7.10
2023-04-23T01:37:18.151Z,7.00
2023-04-23T01:39:45.743Z,7.00
2023-04-23T01:42:13.301Z,6.90
2023-04-23T01:44:41.267Z,6.90
2023-04-23T01:47:09.048Z,6.90
2023-04-23T01:49:36.927Z,6.80
2023-04-23T01:52:04.495Z,6.80
2023-04-23T01:54:32.212Z,6.80
2023-04-23T01:57:00.378Z,6.80
2023-04-23T01:59:27.926Z,6.70
2023-04-23T02:01:55.530Z,6.70
2023-04-23T02:04:23.385Z,6.70
2023-04-23T02:06:52.324Z,6.70
2023-04-23T02:09:19.937Z,6.60
2023-04-23T02:11:47.481Z,6.60
2023-04-23T02:14:15.140Z,6.50
2023-04-23T02:16:42.777Z,6.50
2023-04-23T02:19:10.373Z,6.40
2023-04-23T02:21:37.953Z,6.40
2023-04-23T02:24:05.684Z,6.40
2023-04-23T02:26:33.406Z,6.40
2023-04-23T02:29:00.958Z,6.40
2023-04-23T02:31:28.544Z,6.40
2023-04-23T02:33:56.120Z,6.30
2023-04-23T02:36:23.717Z,6.30
2023-04-23T02:38:51.445Z,6.30
2023-04-23T02:41:19.262Z,6.40
2023-04-23T02:43:47.079Z,6.30
2023-04-23T02:46:14.676Z,6.30
2023-04-23T02:48:42.747Z,6.20
2023-04-23T02:51:12.954Z,6.20
2023-04-23T02:53:40.634Z,6.20
2023-04-23T02:56:08.217Z,6.10
2023-04-23T02:58:36.392Z,6.00
2023-04-23T03:01:05.644Z,5.90
2023-04-23T03:03:34.486Z,5.90
2023-04-23T03:06:03.760Z,5.90
2023-04-23T03:08:31.385Z,5.90
2023-04-23T03:10:59.046Z,6.00
2023-04-23T03:13:27.460Z,5.90
2023-04-23T03:15:56.491Z,5.90
2023-04-23T03:18:24.064Z,5.90
2023-04-23T03:20:51.668Z,6.00
2023-04-23T03:23:19.235Z,6.00
2023-04-23T03:25:46.828Z,5.90
2023-04-23T03:28:15.345Z,5.90
2023-04-23T03:30:43.509Z,5.90
2023-04-23T03:33:11.096Z,5.90
2023-04-23T03:35:38.647Z,5.90
2023-04-23T03:38:06.222Z,5.90
2023-04-23T03:40:33.852Z,5.80
2023-04-23T03:43:01.386Z,5.90
2023-04-23T03:45:30.196Z,5.80
2023-04-23T03:47:57.748Z,5.80
2023-04-23T03:50:26.095Z,5.80
2023-04-23T03:52:53.641Z,5.80
2023-04-23T03:55:21.364Z,5.70
2023-04-23T03:57:48.953Z,5.80
2023-04-23T04:00:16.762Z,5.80
2023-04-23T04:02:44.422Z,5.80
2023-04-23T04:05:12.220Z,5.80
2023-04-23T04:07:41.342Z,5.90
2023-04-23T04:10:09.385Z,6.00
2023-04-23T04:12:36.970Z,6.00
2023-04-23T04:15:05.568Z,6.10
2023-04-23T04:17:33.195Z,6.20
2023-04-23T04:20:00.752Z,6.20
2023-04-23T04:22:29.936Z,6.20
2023-04-23T04:24:57.781Z,6.20
2023-04-23T04:27:25.780Z,6.30
2023-04-23T04:29:53.365Z,6.30
2023-04-23T04:32:23.667Z,6.40
2023-04-23T04:34:51.260Z,6.40
2023-04-23T04:37:18.947Z,6.50
2023-04-23T04:39:47.022Z,6.60
2023-04-23T04:42:14.595Z,6.60
2023-04-23T04:44:43.889Z,6.60
2023-04-23T04:47:13.615Z,6.60
2023-04-23T04:49:41.140Z,6.60
2023-04-23T04:52:08.818Z,6.60
2023-04-23T04:54:36.400Z,6.60
2023-04-23T04:57:03.936Z,6.70
2023-04-23T04:59:31.459Z,6.90
2023-04-23T05:02:00.490Z,7.00
2023-04-23T05:04:28.109Z,7.10
2023-04-23T05:06:55.849Z,7.20
2023-04-23T05:09:23.450Z,7.30
2023-04-23T05:11:51.944Z,7.40
2023-04-23T05:14:19.487Z,7.50
2023-04-23T05:16:47.131Z,7.60
2023-04-23T05:19:14.788Z,7.70
2023-04-23T05:21:42.782Z,7.90
2023-04-23T05:24:10.353Z,8.00
2023-04-23T05:26:38.428Z,8.10
2023-04-23T05:29:06.007Z,8.30
2023-04-23T05:31:33.861Z,8.40
2023-04-23T05:34:01.429Z,8.50
2023-04-23T05:36:29.029Z,8.70
2023-04-23T05:38:56.577Z,8.70
2023-04-23T05:41:24.191Z,8.90
2023-04-23T05:43:51.788Z,9.00
2023-04-23T05:46:19.757Z,9.10
2023-04-23T05:48:47.465Z,9.20
2023-04-23T05:51:15.006Z,9.40
2023-04-23T05:53:42.612Z,9.40
2023-04-23T05:56:10.126Z,9.60
2023-04-23T05:58:39.072Z,9.70
2023-04-23T06:01:06.721Z,9.80
2023-04-23T06:03:34.930Z,9.90
2023-04-23T06:06:02.767Z,10.00
2023-04-23T06:08:30.341Z,10.20
2023-04-23T06:10:58.376Z,10.30
2023-04-23T06:13:26.773Z,10.50
2023-04-23T06:15:54.290Z,10.60
2023-04-23T06:18:21.918Z,10.70
2023-04-23T06:20:51.656Z,10.90
2023-04-23T06:23:19.192Z,11.00
2023-04-23T06:25:46.673Z,11.10
2023-04-23T06:28:14.200Z,11.20
2023-04-23T06:30:41.759Z,11.30
2023-04-23T06:33:09.563Z,11.40
2023-04-23T06:35:37.363Z,11.50
2023-04-23T06:38:05.002Z,11.70
2023-04-23T06:40:33.949Z,11.80
2023-04-23T06:43:04.723Z,12.00
2023-04-23T06:45:33.445Z,12.10
2023-04-23T06:48:01.305Z,12.30
2023-04-23T06:50:29.575Z,12.40
2023-04-23T06:52:57.100Z,12.60
2023-04-23T06:55:29.202Z,12.90
2023-04-23T06:57:57.568Z,13.00
2023-04-23T07:00:25.346Z,13.20
2023-04-23T07:02:52.964Z,13.40
2023-04-23T07:05:20.897Z,13.60
2023-04-23T07:07:48.447Z,13.70
2023-04-23T07:10:17.995Z,13.80
2023-04-23T07:12:46.060Z,13.90
2023-04-23T07:15:13.875Z,14.00
2023-04-23T07:17:41.718Z,14.20
2023-04-23T07:20:09.719Z,14.20
2023-04-23T07:22:37.246Z,14.40
2023-04-23T07:25:05.643Z,14.50
2023-04-23T07:27:33.134Z,14.60
2023-04-23T07:30:02.337Z,14.80
2023-04-23T07:32:30.133Z,15.10
2023-04-23T07:34:57.711Z,15.20
2023-04-23T07:37:25.379Z,15.30
2023-04-23T07:39:54.121Z,15.50
2023-04-23T07:42:21.642Z,15.70
2023-04-23T07:44:49.197Z,15.80
2023-04-23T07:47:16.892Z,16.00
2023-04-23T07:49:44.814Z,16.20
2023-04-23T07:52:12.444Z,16.40
2023-04-23T07:54:40.029Z,16.70
2023-04-23T07:57:07.650Z,16.90
2023-04-23T07:59:35.194Z,16.90
2023-04-23T08:02:02.727Z,17.10
2023-04-23T08:04:30.775Z,17.20
2023-04-23T08:06:58.989Z,17.40
2023-04-23T08:09:27.456Z,17.80
2023-04-23T08:11:55.574Z,17.80
2023-04-23T08:14:23.159Z,17.90
2023-04-23T08:16:50.661Z,18.00
2023-04-23T08:19:18.249Z,18.10
2023-04-23T08:21:45.848Z,18.30
2023-04-23T08:24:13.392Z,18.40
2023-04-23T08:26:41.095Z,18.60
2023-04-23T08:29:10.880Z,18.70
2023-04-23T08:31:39.182Z,18.90
2023-04-23T08:34:07.134Z,18.90
2023-04-23T08:36:34.845Z,18.80
2023-04-23T08:39:04.225Z,18.90
2023-04-23T08:41:44.371Z,19.00
2023-04-23T08:44:22.657Z,19.30
2023-04-23T08:46:51.247Z,19.30
2023-04-23T08:49:19.913Z,19.40
2023-04-23T08:51:54.709Z,19.60
2023-04-23T08:54:31.213Z,19.90
2023-04-23T08:56:59.725Z,19.90
2023-04-23T08:59:42.376Z,20.10
2023-04-23T09:02:10.988Z,20.10
2023-04-23T09:04:39.353Z,20.40
2023-04-23T09:07:15.757Z,20.70
2023-04-23T09:09:49.243Z,20.70
2023-04-23T09:12:26.349Z,21.00
2023-04-23T09:14:56.066Z,21.20
2023-04-23T09:17:49.459Z,21.00
2023-04-23T09:20:31.890Z,21.10
2023-04-23T09:22:59.417Z,21.10
2023-04-23T09:25:27.063Z,21.30
2023-04-23T09:27:55.049Z,21.00
2023-04-23T09:30:25.507Z,21.00
2023-04-23T09:32:53.332Z,20.80
2023-04-23T09:35:21.093Z,20.80
2023-04-23T09:37:52.615Z,21.00
2023-04-23T09:40:25.819Z,21.00
2023-04-23T09:42:56.825Z,21.10
2023-04-23T09:45:27.876Z,21.40
2023-04-23T09:47:58.181Z,21.70
2023-04-23T09:50:39.743Z,22.10
2023-04-23T09:53:09.614Z,22.60
2023-04-23T09:55:40.118Z,22.90
2023-04-23T09:58:16.085Z,22.90
2023-04-23T10:00:43.997Z,22.80
2023-04-23T10:03:12.438Z,22.80
2023-04-23T10:08:16.420Z,22.80
2023-04-23T10:11:00.088Z,22.90
2023-04-23T10:13:31.043Z,22.70
2023-04-23T10:16:14.095Z,22.50
2023-04-23T10:18:51.256Z,22.50
2023-04-23T10:21:20.314Z,22.20
2023-04-23T10:23:50.681Z,22.20
2023-04-23T10:26:24.209Z,21.80
2023-04-23T10:28:55.595Z,21.90
2023-04-23T10:31:23.999Z,22.00
2023-04-23T10:33:58.685Z,22.00
2023-04-23T10:36:28.290Z,21.40
2023-04-23T10:39:00.289Z,21.40
2023-04-23T10:41:37.229Z,21.50
2023-04-23T10:44:15.873Z,21.10
2023-04-23T10:46:58.135Z,21.10
2023-04-23T10:49:26.295Z,21.20
2023-04-23T10:52:19.342Z,21.00
2023-04-23T10:54:57.483Z,20.70
2023-04-23T10:57:25.213Z,20.70
2023-04-23T10:59:55.487Z,20.60
2023-04-23T11:02:26.067Z,20.60
2023-04-23T11:04:59.025Z,20.50
2023-04-23T11:07:32.504Z,20.70
2023-04-23T11:10:11.410Z,21.00
2023-04-23T11:12:40.508Z,20.70
2023-04-23T11:15:14.377Z,20.60
2023-04-23T11:17:45.090Z,20.90
2023-04-23T11:20:23.973Z,21.00
2023-04-23T11:22:53.461Z,21.10
2023-04-23T11:25:27.171Z,21.00
2023-04-23T11:28:01.550Z,21.40
2023-04-23T11:30:32.394Z,21.50
2023-04-23T11:33:01.700Z,21.30
2023-04-23T11:35:30.771Z,21.60
2023-04-23T11:37:58.391Z,21.50
2023-04-23T11:40:26.008Z,21.70
2023-04-23T11:42:58.288Z,21.50
2023-04-23T11:45:30.317Z,21.70
2023-04-23T11:48:01.089Z,21.50
2023-04-23T11:50:33.803Z,21.20
2023-04-23T11:53:11.466Z,21.60
2023-04-23T11:55:44.188Z,21.70
2023-04-23T11:58:11.811Z,21.50
2023-04-23T12:00:40.836Z,21.30
2023-04-23T12:03:08.638Z,21.80
2023-04-23T12:05:41.198Z,21.90
2023-04-23T12:08:18.730Z,22.10
2023-04-23T12:10:57.508Z,22.00
2023-04-23T12:13:33.976Z,22.10
2023-04-23T12:16:04.988Z,22.10
2023-04-23T12:18:42.432Z,22.00
2023-04-23T12:21:12.994Z,21.50
2023-04-23T12:23:45.456Z,21.40
2023-04-23T12:26:16.232Z,21.00
2023-04-23T12:28:55.694Z,20.80
2023-04-23T12:31:28.579Z,20.70
2023-04-23T12:34:06.195Z,20.50
2023-04-23T12:36:38.771Z,20.50
2023-04-23T12:39:31.549Z,20.40
2023-04-23T12:42:03.090Z,20.80
2023-04-23T12:44:32.166Z,20.70
2023-04-23T12:47:05.596Z,21.00
2023-04-23T12:49:34.864Z,21.00
2023-04-23T12:52:04.436Z,21.00
2023-04-23T12:54:39.071Z,21.00
2023-04-23T12:57:13.152Z,20.40
2023-04-23T12:59:41.084Z,20.20
2023-04-23T13:02:10.562Z,20.20
2023-04-23T13:04:38.356Z,20.10
2023-04-23T13:07:06.163Z,20.20
2023-04-23T13:09:36.166Z,20.10
2023-04-23T13:12:04.501Z,20.10
2023-04-23T13:14:32.602Z,20.00
2023-04-23T13:17:00.239Z,20.20
2023-04-23T13:19:27.879Z,20.40
2023-04-23T13:21:55.621Z,20.50
2023-04-23T13:24:23.205Z,20.60
2023-04-23T13:26:50.992Z,20.80
2023-04-23T13:29:20.837Z,21.20
2023-04-23T13:31:49.308Z,21.30
2023-04-23T13:34:17.918Z,21.00
2023-04-23T13:36:45.526Z,20.50
2023-04-23T13:39:14.388Z,20.40
2023-04-23T13:41:42.536Z,20.30
2023-04-23T13:44:10.527Z,19.90
2023-04-23T13:46:40.235Z,19.40
2023-04-23T13:49:07.914Z,19.30
2023-04-23T13:51:36.254Z,19.20
2023-04-23T13:54:04.615Z,19.20
2023-04-23T13:56:32.343Z,19.00
2023-04-23T14:01:32.952Z,18.80
2023-04-23T14:04:00.628Z,18.70
2023-04-23T14:06:28.228Z,18.70
2023-04-23T14:08:55.799Z,18.70
2023-04-23T14:11:23.432Z,18.70
2023-04-23T14:13:51.108Z,18.60
2023-04-23T14:16:18.640Z,18.50
2023-04-23T14:18:46.188Z,18.50
2023-04-23T14:21:16.279Z,18.30
2023-04-23T14:24:01.432Z,18.40
2023-04-23T14:26:47.888Z,18.50
2023-04-23T14:29:56.220Z,18.60
2023-04-23T14:32:24.175Z,18.60
2023-04-23T14:34:51.915Z,18.80
2023-04-23T14:37:19.623Z,19.00
2023-04-23T14:39:47.156Z,19.10
2023-04-23T14:42:14.975Z,19.30
2023-04-23T14:44:42.531Z,19.10
2023-04-23T14:47:12.056Z,19.10
2023-04-23T14:49:41.933Z,19.20
2023-04-23T14:52:09.842Z,19.30
2023-04-23T14:54:37.490Z,19.00
2023-04-23T14:57:05.265Z,18.80
2023-04-23T14:59:32.872Z,18.70
2023-04-23T15:02:01.440Z,18.60
2023-04-23T15:04:29.136Z,18.40
2023-04-23T15:06:56.762Z,18.30
2023-04-23T15:09:24.319Z,18.10
2023-04-23T15:11:51.909Z,18.10
2023-04-23T15:14:25.630Z,18.20
2023-04-23T15:16:53.261Z,18.20
2023-04-23T15:19:20.903Z,18.10
2023-04-23T15:21:48.925Z,18.10
2023-04-23T15:24:17.386Z,18.10
2023-04-23T15:26:46.198Z,18.10
2023-04-23T15:29:14.121Z,18.00
2023-04-23T15:31:42.329Z,17.90
2023-04-23T15:34:11.749Z,17.90
2023-04-23T15:36:39.614Z,17.80
2023-04-23T15:39:08.767Z,17.60
2023-04-23T15:41:40.355Z,17.40
2023-04-23T15:44:12.471Z,17.30
2023-04-23T15:46:40.729Z,17.20
2023-04-23T15:49:08.735Z,17.10
2023-04-23T15:51:37.589Z,17.00
2023-04-23T15:54:08.884Z,16.80
2023-04-23T15:56:37.316Z,16.70
2023-04-23T15:59:05.577Z,16.70
2023-04-23T16:01:33.241Z,16.50
2023-04-23T16:04:10.195Z,16.40
2023-04-23T16:06:39.140Z,16.20
2023-04-23T16:09:08.680Z,15.60
2023-04-23T16:11:39.386Z,15.20
2023-04-23T16:14:09.567Z,14.90
2023-04-23T16:16:38.882Z,14.80
2023-04-23T16:19:06.801Z,14.70
2023-04-23T16:21:34.423Z,14.70
2023-04-23T16:24:02.067Z,14.70
2023-04-23T16:26:30.136Z,14.60
2023-04-23T16:29:11.421Z,14.60
2023-04-23T16:31:45.949Z,14.60
2023-04-23T16:34:13.798Z,14.70
2023-04-23T16:37:01.846Z,14.70
2023-04-23T16:39:33.991Z,14.70
2023-04-23T16:42:10.380Z,14.70
2023-04-23T16:44:43.485Z,14.60
2023-04-23T16:47:11.468Z,14.40
2023-04-23T16:49:39.166Z,14.20
2023-04-23T16:52:06.739Z,14.00
2023-04-23T16:54:36.305Z,13.90
2023-04-23T16:57:07.712Z,13.70
2023-04-23T16:59:35.330Z,13.60
2023-04-23T17:02:02.884Z,13.60
2023-04-23T17:04:30.728Z,13.60
2023-04-23T17:06:58.444Z,13.60
2023-04-23T17:09:25.974Z,13.60
2023-04-23T17:11:53.489Z,13.50
2023-04-23T17:14:22.493Z,13.40
2023-04-23T17:16:50.969Z,13.50
2023-04-23T17:19:18.654Z,13.50
2023-04-23T17:21:46.394Z,13.40
2023-04-23T17:24:14.094Z,13.40
2023-04-23T17:26:41.817Z,13.40
2023-04-23T17:29:09.469Z,13.40
2023-04-23T17:31:38.379Z,13.50
2023-04-23T17:34:06.005Z,13.70
2023-04-23T17:36:33.756Z,13.70
2023-04-23T17:39:01.410Z,13.80
2023-04-23T17:41:28.925Z,13.90
2023-04-23T17:43:56.510Z,13.90
2023-04-23T17:46:24.125Z,13.80
2023-04-23T17:48:51.754Z,13.80
2023-04-23T17:51:19.946Z,13.80
2023-04-23T17:53:51.147Z,13.70
2023-04-23T17:56:18.730Z,13.70
2023-04-23T17:58:46.321Z,13.60
2023-04-23T18:01:15.646Z,13.60
2023-04-23T18:03:44.061Z,13.70
2023-04-23T18:06:12.223Z,13.70
2023-04-23T18:08:42.527Z,13.60
2023-04-23T18:11:10.599Z,13.60
2023-04-23T18:13:38.404Z,13.60
2023-04-23T18:16:06.207Z,13.50
2023-04-23T18:18:33.862Z,13.40
2023-04-23T18:21:02.225Z,13.30
2023-04-23T18:23:31.511Z,13.30
2023-04-23T18:26:02.094Z,13.30
2023-04-23T18:28:29.719Z,13.30
2023-04-23T18:31:03.319Z,13.40
2023-04-23T18:33:37.858Z,13.40
2023-04-23T18:36:25.782Z,13.40
2023-04-23T18:38:54.271Z,13.50
2023-04-23T18:41:21.900Z,13.40
2023-04-23T18:43:49.627Z,13.50
2023-04-23T18:46:17.446Z,13.50
2023-04-23T18:49:19.851Z,13.40
2023-04-23T18:51:52.265Z,13.20
2023-04-23T18:54:19.834Z,13.20
2023-04-23T18:56:48.015Z,13.20
2023-04-23T18:59:15.635Z,13.20
2023-04-23T19:01:44.841Z,13.10
2023-04-23T19:04:12.789Z,13.10
2023-04-23T19:06:41.424Z,13.00
2023-04-23T19:09:09.248Z,13.10
2023-04-23T19:11:38.323Z,13.00
2023-04-23T19:14:05.936Z,13.00
2023-04-23T19:16:33.746Z,12.90
2023-04-23T19:19:01.487Z,12.90
2023-04-23T19:21:29.190Z,13.10
2023-04-23T19:23:56.983Z,13.20
2023-04-23T19:26:24.535Z,13.30
2023-04-23T19:28:52.070Z,13.30
2023-04-23T19:31:19.674Z,13.20
2023-04-23T19:33:47.801Z,13.20
2023-04-23T19:36:15.512Z,13.10
2023-04-23T19:38:43.155Z,13.10
2023-04-23T19:41:10.861Z,13.00
2023-04-23T19:43:38.878Z,13.00
2023-04-23T19:46:06.510Z,12.80
2023-04-23T19:48:34.165Z,12.70
2023-04-23T19:51:01.730Z,12.60
2023-04-23T19:53:29.627Z,12.80
2023-04-23T19:55:57.184Z,12.90
2023-04-23T19:58:24.716Z,13.00
2023-04-23T20:00:52.821Z,12.90
2023-04-23T20:03:21.320Z,12.80
2023-04-23T20:05:49.974Z,12.70
2023-04-23T20:08:26.250Z,12.70
2023-04-23T20:10:54.254Z,12.60
2023-04-23T20:13:22.163Z,12.50
2023-04-23T20:15:50.285Z,12.50
2023-04-23T20:18:18.807Z,12.50
2023-04-23T20:20:46.357Z,12.40
2023-04-23T20:23:13.943Z,12.40
2023-04-23T20:25:41.558Z,12.30
2023-04-23T20:28:12.225Z,12.40
2023-04-23T20:30:39.848Z,12.40
2023-04-23T20:33:07.787Z,12.40
2023-04-23T20:35:35.617Z,12.40
2023-04-23T20:38:03.743Z,12.30
2023-04-23T20:40:34.742Z,12.20
2023-04-23T20:43:02.433Z,12.20
2023-04-23T20:45:29.995Z,12.20
2023-04-23T20:48:02.679Z,12.20
2023-04-23T20:50:31.208Z,12.10
2023-04-23T20:52:59.041Z,12.10
2023-04-23T20:55:28.312Z,12.10
2023-04-23T20:57:55.979Z,12.10
2023-04-23T21:00:24.423Z,12.10
2023-04-23T21:02:52.039Z,12.10
2023-04-23T21:05:20.949Z,12.10
2023-04-23T21:07:50.777Z,12.10
2023-04-23T21:10:18.541Z,12.10
2023-04-23T21:12:46.527Z,12.00
2023-04-23T21:15:17.018Z,11.90
2023-04-23T21:17:44.608Z,12.00
2023-04-23T21:20:12.377Z,12.00
2023-04-23T21:22:40.231Z,12.00
2023-04-23T21:25:08.133Z,12.00
2023-04-23T21:27:35.859Z,11.90
2023-04-23T21:30:09.598Z,11.70
2023-04-23T21:32:37.335Z,11.50
2023-04-23T21:35:06.032Z,11.50
2023-04-23T21:37:33.603Z,11.50
2023-04-23T21:40:01.169Z,11.50
2023-04-23T21:42:30.282Z,11.30
2023-04-23T21:44:57.995Z,11.30
2023-04-23T21:47:25.761Z,11.30
2023-04-23T21:49:53.934Z,11.40
2023-04-23T21:52:21.461Z,11.40
2023-04-23T21:54:49.003Z,11.40
2023-04-23T21:57:16.596Z,11.40
2023-04-23T21:59:44.520Z,11.50
2023-04-23T22:02:12.361Z,11.50
2023-04-23T22:04:40.505Z,11.50
2023-04-23T22:07:12.616Z,11.50
2023-04-23T22:09:41.680Z,11.40
2023-04-23T22:12:09.690Z,11.30
2023-04-23T22:14:37.447Z,11.30
2023-04-23T22:17:07.765Z,11.20
2023-04-23T22:19:35.474Z,11.20
2023-04-23T22:22:03.167Z,11.20
2023-04-23T22:24:30.708Z,11.20
2023-04-23T22:26:59.243Z,11.20
2023-04-23T22:29:26.988Z,11.20
2023-04-23T22:31:54.603Z,11.10
2023-04-23T22:34:22.135Z,10.90
2023-04-23T22:36:49.640Z,10.80
2023-04-23T22:39:17.183Z,10.70
2023-04-23T22:41:44.713Z,10.70
2023-04-23T22:44:12.235Z,10.70
2023-04-23T22:46:40.658Z,10.80
2023-04-23T22:49:11.293Z,10.80
2023-04-23T22:51:38.988Z,10.90
2023-04-23T22:54:06.707Z,10.90
2023-04-23T22:56:34.524Z,11.00
2023-04-23T22:59:05.168Z,10.90
2023-04-23T23:01:32.990Z,11.00
2023-04-23T23:04:01.009Z,11.00
2023-04-23T23:06:28.602Z,11.00
2023-04-23T23:08:56.645Z,11.00
2023-04-23T23:11:30.276Z,11.10
2023-04-23T23:13:57.808Z,11.10
2023-04-23T23:16:25.758Z,11.10
2023-04-23T23:18:53.685Z,11.10
2023-04-23T23:21:21.240Z,11.20
2023-04-23T23:23:49.769Z,11.20
2023-04-23T23:26:17.733Z,11.20
2023-04-23T23:28:45.461Z,11.20
2023-04-23T23:31:13.113Z,11.10
2023-04-23T23:33:41.077Z,11.10
2023-04-23T23:36:08.939Z,11.10
2023-04-23T23:38:36.538Z,11.20
2023-04-23T23:41:04.183Z,11.20
2023-04-23T23:43:31.996Z,11.20
2023-04-23T23:45:59.588Z,11.20
2023-04-23T23:48:27.443Z,11.30
2023-04-23T23:50:54.999Z,11.30
2023-04-23T23:53:22.513Z,11.30
2023-04-23T23:55:50.035Z,11.30
2023-04-23T23:58:17.792Z,11.30
